createdAt,value
2023-05-04T00:00:59.071Z,20.52
2023-05-04T00:03:26.270Z,20.50
2023-05-04T00:05:53.244Z,20.47
2023-05-04T00:08:20.438Z,20.44
2023-05-04T00:10:47.669Z,20.41
2023-05-04T00:13:14.644Z,20.36
2023-05-04T00:15:41.638Z,20.33
2023-05-04T00:18:08.689Z,20.29
2023-05-04T00:20:36.105Z,20.27
2023-05-04T00:23:03.143Z,20.18
2023-05-04T00:25:30.188Z,20.15
2023-05-04T00:27:57.395Z,20.16
2023-05-04T00:30:24.331Z,20.12
2023-05-04T00:32:51.363Z,20.07
2023-05-04T00:35:18.415Z,20.06
2023-05-04T00:37:46.554Z,20.02
2023-05-04T00:40:13.712Z,19.95
2023-05-04T00:42:40.761Z,19.97
2023-05-04T00:45:08.279Z,19.95
2023-05-04T00:47:36.097Z,19.91
2023-05-04T00:50:04.569Z,19.90
2023-05-04T00:52:32.228Z,19.88
2023-05-04T00:55:01.571Z,19.86
2023-05-04T00:57:28.540Z,19.84
2023-05-04T00:59:56.796Z,19.79
2023-05-04T01:02:23.766Z,19.77
2023-05-04T01:04:51.140Z,19.74
2023-05-04T01:07:43.125Z,19.72
2023-05-04T01:10:15.651Z,19.69
2023-05-04T01:13:10.941Z,19.67
2023-05-04T01:15:38.671Z,19.61
2023-05-04T01:18:06.336Z,19.56
2023-05-04T01:20:34.147Z,19.54
2023-05-04T01:23:03.108Z,19.51
2023-05-04T01:25:43.008Z,19.51
2023-05-04T01:28:24.455Z,19.49
2023-05-04T01:30:55.681Z,19.47
2023-05-04T01:33:23.523Z,19.43
2023-05-04T01:35:50.746Z,19.43
2023-05-04T01:38:18.498Z,19.38
2023-05-04T01:40:45.396Z,19.37
2023-05-04T01:43:12.841Z,19.35
2023-05-04T01:45:39.759Z,19.34
2023-05-04T01:48:06.902Z,19.32
2023-05-04T01:50:33.800Z,19.31
2023-05-04T01:53:02.417Z,19.28
2023-05-04T01:55:29.370Z,19.25
2023-05-04T01:57:56.314Z,19.25
2023-05-04T02:00:23.399Z,19.23
2023-05-04T02:02:50.360Z,19.22
2023-05-04T02:05:19.494Z,19.18
2023-05-04T02:07:46.515Z,19.16
2023-05-04T02:10:13.655Z,19.14
2023-05-04T02:12:43.201Z,19.13
2023-05-04T02:15:10.993Z,19.12
2023-05-04T02:17:38.048Z,19.11
2023-05-04T02:20:05.968Z,19.08
2023-05-04T02:22:33.270Z,19.07
2023-05-04T02:25:00.213Z,19.05
2023-05-04T02:27:27.086Z,19.04
2023-05-04T02:29:54.419Z,19.04
2023-05-04T02:32:21.399Z,19.00
2023-05-04T02:34:50.123Z,18.98
2023-05-04T02:37:17.120Z,18.95
2023-05-04T02:39:44.136Z,18.95
2023-05-04T02:42:11.214Z,18.94
2023-05-04T02:44:38.197Z,18.90
2023-05-04T02:47:06.012Z,18.88
2023-05-04T02:49:33.009Z,18.81
2023-05-04T02:52:00.002Z,18.84
2023-05-04T02:54:27.044Z,18.79
2023-05-04T02:56:54.027Z,18.78
2023-05-04T02:59:21.056Z,18.71
2023-05-04T03:01:48.323Z,18.70
2023-05-04T03:04:15.441Z,18.67
2023-05-04T03:06:42.590Z,18.65
2023-05-04T03:09:10.492Z,18.66
2023-05-04T03:11:37.427Z,18.64
2023-05-04T03:14:04.419Z,18.64
2023-05-04T03:16:31.435Z,18.63
2023-05-04T03:18:58.455Z,18.61
2023-05-04T03:21:25.553Z,18.59
2023-05-04T03:23:53.258Z,18.57
2023-05-04T03:26:20.264Z,18.56
2023-05-04T03:28:47.922Z,18.54
2023-05-04T03:31:14.943Z,18.54
2023-05-04T03:33:42.492Z,18.52
2023-05-04T03:36:09.641Z,18.50
2023-05-04T03:38:38.706Z,18.42
2023-05-04T03:41:06.050Z,18.39
2023-05-04T03:43:33.121Z,18.36
2023-05-04T03:46:00.552Z,18.34
2023-05-04T03:48:27.647Z,18.34
2023-05-04T03:50:54.990Z,18.34
2023-05-04T03:53:22.004Z,18.31
2023-05-04T03:55:49.014Z,18.31
2023-05-04T03:58:16.008Z,18.29
2023-05-04T04:00:42.995Z,18.18
2023-05-04T04:03:15.122Z,18.21
2023-05-04T04:05:42.274Z,18.18
2023-05-04T04:08:09.690Z,18.15
2023-05-04T04:10:37.445Z,18.16
2023-05-04T04:13:04.510Z,18.12
2023-05-04T04:15:32.149Z,18.14
2023-05-04T04:17:59.214Z,18.09
2023-05-04T04:20:26.524Z,18.07
2023-05-04T04:22:53.650Z,18.05
2023-05-04T04:25:20.636Z,18.03
2023-05-04T04:27:47.575Z,18.03
2023-05-04T04:30:14.857Z,18.00
2023-05-04T04:32:42.107Z,17.99
2023-05-04T04:35:09.354Z,17.98
2023-05-04T04:37:36.365Z,17.94
2023-05-04T04:40:04.327Z,17.95
2023-05-04T04:42:32.386Z,17.93
2023-05-04T04:44:59.454Z,17.92
2023-05-04T04:47:26.915Z,17.92
2023-05-04T04:49:54.105Z,17.93
2023-05-04T04:52:21.673Z,17.92
2023-05-04T04:54:48.705Z,17.91
2023-05-04T04:57:15.635Z,17.90
2023-05-04T04:59:42.583Z,17.88
2023-05-04T05:02:09.777Z,17.90
2023-05-04T05:04:41.273Z,17.91
2023-05-04T05:07:10.967Z,17.88
2023-05-04T05:09:38.585Z,17.90
2023-05-04T05:12:06.091Z,17.89
2023-05-04T05:14:33.198Z,17.93
2023-05-04T05:17:00.468Z,17.93
2023-05-04T05:19:27.676Z,17.96
2023-05-04T05:21:55.011Z,18.00
2023-05-04T05:24:22.004Z,17.97
2023-05-04T05:26:49.051Z,18.03
2023-05-04T05:29:15.978Z,18.03
2023-05-04T05:31:42.955Z,18.10
2023-05-04T05:34:09.895Z,18.03
2023-05-04T05:36:36.918Z,18.14
2023-05-04T05:39:04.507Z,18.20
2023-05-04T05:41:31.548Z,18.28
2023-05-04T05:43:58.798Z,18.30
2023-05-04T05:46:26.054Z,18.37
2023-05-04T05:48:52.952Z,18.40
2023-05-04T05:51:19.931Z,18.46
2023-05-04T05:53:47.080Z,18.53
2023-05-04T05:56:14.950Z,18.61
2023-05-04T05:58:41.913Z,18.64
2023-05-04T06:01:09.165Z,19.13
2023-05-04T06:03:36.408Z,20.08
2023-05-04T06:06:03.539Z,21.02
2023-05-04T06:08:31.165Z,21.95
2023-05-04T06:10:58.169Z,22.90
2023-05-04T06:13:25.154Z,23.82
2023-05-04T06:15:53.530Z,24.65
2023-05-04T06:18:21.633Z,25.43
2023-05-04T06:20:48.743Z,26.11
2023-05-04T06:23:16.641Z,26.80
2023-05-04T06:25:43.634Z,27.45
2023-05-04T06:28:10.669Z,28.02
2023-05-04T06:30:37.676Z,28.64
2023-05-04T06:33:04.736Z,29.19
2023-05-04T06:35:32.091Z,29.65
2023-05-04T06:37:59.057Z,30.19
2023-05-04T06:40:26.673Z,30.75
2023-05-04T06:42:53.848Z,31.17
2023-05-04T06:45:20.790Z,31.58
2023-05-04T06:47:48.054Z,31.80
2023-05-04T06:50:16.083Z,32.36
2023-05-04T06:52:45.009Z,32.80
2023-05-04T06:55:12.300Z,33.15
2023-05-04T06:57:39.469Z,33.47
2023-05-04T07:00:08.463Z,33.86
2023-05-04T07:02:35.968Z,34.30
2023-05-04T07:05:04.037Z,34.74
2023-05-04T07:07:31.193Z,35.14
2023-05-04T07:10:01.127Z,35.46
2023-05-04T07:12:28.481Z,35.34
2023-05-04T07:14:55.429Z,35.81
2023-05-04T07:17:25.519Z,35.90
2023-05-04T07:19:52.718Z,36.24
2023-05-04T07:22:20.991Z,36.65
2023-05-04T07:24:48.053Z,37.07
2023-05-04T07:27:14.941Z,37.40
2023-05-04T07:29:41.858Z,37.61
2023-05-04T07:32:09.500Z,37.97
2023-05-04T07:34:45.166Z,38.24
2023-05-04T07:37:13.609Z,38.56
2023-05-04T07:39:40.584Z,38.32
2023-05-04T07:42:08.546Z,38.47
2023-05-04T07:44:35.484Z,38.65
2023-05-04T07:47:02.662Z,39.00
2023-05-04T07:49:29.623Z,38.87
2023-05-04T07:51:56.564Z,39.22
2023-05-04T07:54:23.619Z,39.12
2023-05-04T07:56:50.779Z,39.53
2023-05-04T07:59:18.938Z,39.96
2023-05-04T08:01:46.640Z,40.53
2023-05-04T08:04:13.577Z,40.39
2023-05-04T08:06:40.588Z,40.07
2023-05-04T08:09:08.100Z,40.44
2023-05-04T08:11:35.149Z,40.32
2023-05-04T08:14:02.283Z,40.42
2023-05-04T08:16:29.629Z,40.96
2023-05-04T08:18:57.313Z,41.34
2023-05-04T08:21:24.352Z,41.23
2023-05-04T08:23:51.516Z,40.72
2023-05-04T08:26:19.837Z,41.07
2023-05-04T08:28:46.948Z,41.01
2023-05-04T08:31:13.984Z,41.40
2023-05-04T08:33:40.928Z,40.87
2023-05-04T08:36:09.845Z,40.92
2023-05-04T08:38:36.862Z,40.32
2023-05-04T08:41:07.433Z,40.75
2023-05-04T08:43:37.653Z,41.00
2023-05-04T08:46:06.307Z,40.21
2023-05-04T08:48:37.088Z,40.29
2023-05-04T08:51:06.183Z,39.91
2023-05-04T08:53:40.439Z,39.93
2023-05-04T08:56:09.732Z,39.42
2023-05-04T08:58:38.287Z,39.08
2023-05-04T09:01:07.971Z,39.21
2023-05-04T09:03:35.258Z,38.60
2023-05-04T09:06:02.937Z,38.10
2023-05-04T09:08:30.032Z,37.87
2023-05-04T09:10:57.018Z,37.42
2023-05-04T09:13:23.966Z,36.73
2023-05-04T09:15:55.478Z,36.43
2023-05-04T09:18:23.330Z,35.94
2023-05-04T09:20:50.402Z,35.17
2023-05-04T09:23:18.344Z,34.87
2023-05-04T09:25:52.433Z,34.41
2023-05-04T09:28:22.004Z,33.13
2023-05-04T09:30:51.847Z,33.53
2023-05-04T09:33:27.379Z,33.15
2023-05-04T09:35:54.474Z,32.82
2023-05-04T09:38:26.876Z,32.27
2023-05-04T09:40:54.106Z,32.13
2023-05-04T09:43:21.179Z,31.85
2023-05-04T09:45:49.114Z,31.86
2023-05-04T09:48:25.718Z,31.66
2023-05-04T09:50:58.171Z,31.21
2023-05-04T09:53:31.749Z,30.67
2023-05-04T09:56:06.479Z,30.26
2023-05-04T09:58:35.756Z,29.92
2023-05-04T10:01:03.321Z,28.97
2023-05-04T10:03:30.659Z,28.04
2023-05-04T10:06:03.583Z,28.22
2023-05-04T10:08:32.631Z,28.16
2023-05-04T10:10:59.513Z,28.10
2023-05-04T10:13:26.708Z,28.05
2023-05-04T10:16:25.091Z,27.70
2023-05-04T10:18:52.093Z,27.46
2023-05-04T10:21:31.270Z,27.07
2023-05-04T10:23:58.474Z,27.19
2023-05-04T10:26:59.582Z,27.32
2023-05-04T10:29:29.823Z,27.10
2023-05-04T10:31:57.148Z,26.87
2023-05-04T10:34:27.114Z,26.80
2023-05-04T10:36:54.206Z,26.80
2023-05-04T10:39:23.123Z,26.82
2023-05-04T10:42:09.053Z,26.93
2023-05-04T10:44:48.745Z,26.75
2023-05-04T10:47:16.134Z,26.85
2023-05-04T10:49:43.092Z,26.82
2023-05-04T10:52:18.018Z,26.71
2023-05-04T10:54:45.584Z,26.48
2023-05-04T10:57:17.626Z,26.54
2023-05-04T10:59:57.541Z,26.42
2023-05-04T11:02:29.333Z,26.47
2023-05-04T11:05:04.451Z,26.45
2023-05-04T11:07:39.165Z,26.31
2023-05-04T11:10:08.415Z,26.01
2023-05-04T11:12:36.131Z,25.96
2023-05-04T11:15:08.350Z,25.73
2023-05-04T11:17:44.627Z,25.55
2023-05-04T11:20:12.275Z,25.42
2023-05-04T11:22:40.236Z,25.33
2023-05-04T11:25:08.960Z,24.70
2023-05-04T11:27:35.873Z,24.95
2023-05-04T11:30:04.829Z,24.27
2023-05-04T11:32:35.224Z,24.26
2023-05-04T11:35:04.513Z,24.50
2023-05-04T11:37:39.351Z,24.03
2023-05-04T11:40:27.043Z,24.32
2023-05-04T11:42:57.243Z,24.49
2023-05-04T11:45:30.007Z,24.68
2023-05-04T11:47:58.759Z,24.67
2023-05-04T11:50:27.013Z,24.57
2023-05-04T11:53:13.760Z,24.75
2023-05-04T11:55:41.969Z,24.74
2023-05-04T11:58:10.756Z,24.79
2023-05-04T12:00:46.058Z,24.21
2023-05-04T12:03:15.771Z,23.78
2023-05-04T12:05:50.952Z,24.26
2023-05-04T12:08:35.087Z,23.96
2023-05-04T12:11:16.379Z,24.25
2023-05-04T12:13:49.536Z,24.40
2023-05-04T12:16:18.465Z,23.89
2023-05-04T12:18:46.962Z,24.43
2023-05-04T12:21:24.233Z,24.27
2023-05-04T12:23:51.199Z,23.80
2023-05-04T12:26:19.722Z,23.78
2023-05-04T12:28:47.553Z,23.89
2023-05-04T12:31:14.639Z,23.82
2023-05-04T12:33:41.943Z,23.81
2023-05-04T12:36:10.287Z,23.37
2023-05-04T12:38:40.607Z,23.06
2023-05-04T12:41:10.947Z,23.29
2023-05-04T12:43:38.393Z,23.65
2023-05-04T12:46:05.453Z,23.86
2023-05-04T12:48:33.514Z,23.88
2023-05-04T12:51:01.709Z,24.12
2023-05-04T12:53:30.243Z,24.13
2023-05-04T12:55:57.447Z,24.36
2023-05-04T12:58:24.462Z,24.47
2023-05-04T13:00:51.914Z,24.35
2023-05-04T13:03:18.998Z,24.31
2023-05-04T13:05:47.608Z,24.50
2023-05-04T13:08:14.648Z,24.53
2023-05-04T13:10:41.632Z,24.54
2023-05-04T13:13:09.081Z,24.49
2023-05-04T13:15:36.182Z,24.39
2023-05-04T13:18:03.571Z,24.43
2023-05-04T13:20:30.911Z,24.39
2023-05-04T13:22:58.624Z,24.42
2023-05-04T13:25:25.855Z,24.28
2023-05-04T13:27:53.454Z,24.19
2023-05-04T13:30:21.904Z,23.99
2023-05-04T13:32:49.383Z,23.84
2023-05-04T13:35:16.684Z,23.82
2023-05-04T13:37:43.736Z,23.78
2023-05-04T13:40:11.397Z,23.82
2023-05-04T13:42:38.513Z,23.78
2023-05-04T13:45:06.906Z,23.80
2023-05-04T13:47:34.703Z,23.81
2023-05-04T13:50:02.158Z,23.85
2023-05-04T13:52:29.155Z,23.86
2023-05-04T13:54:56.791Z,23.83
2023-05-04T13:57:23.859Z,23.69
2023-05-04T14:00:05.185Z,23.74
2023-05-04T14:02:40.383Z,23.68
2023-05-04T14:05:08.356Z,23.51
2023-05-04T14:07:35.617Z,23.40
2023-05-04T14:10:02.877Z,23.47
2023-05-04T14:12:29.912Z,23.50
2023-05-04T14:14:59.026Z,23.59
2023-05-04T14:17:26.049Z,23.67
2023-05-04T14:19:53.113Z,23.59
2023-05-04T14:22:20.146Z,23.58
2023-05-04T14:24:47.174Z,23.46
2023-05-04T14:27:14.181Z,23.48
2023-05-04T14:29:41.244Z,23.51
2023-05-04T14:32:08.368Z,23.48
2023-05-04T14:34:36.293Z,23.46
2023-05-04T14:37:03.313Z,23.53
2023-05-04T14:39:30.241Z,23.45
2023-05-04T14:41:58.149Z,23.47
2023-05-04T14:44:26.236Z,23.57
2023-05-04T14:46:53.329Z,23.17
2023-05-04T14:49:34.846Z,22.88
2023-05-04T14:52:04.020Z,22.52
2023-05-04T14:54:30.992Z,22.46
2023-05-04T14:56:59.099Z,22.42
2023-05-04T14:59:26.486Z,22.38
2023-05-04T15:01:55.475Z,22.44
2023-05-04T15:04:22.852Z,22.57
2023-05-04T15:06:49.967Z,22.71
2023-05-04T15:09:16.919Z,22.73
2023-05-04T15:11:44.069Z,22.77
2023-05-04T15:14:11.276Z,22.76
2023-05-04T15:16:38.796Z,22.89
2023-05-04T15:19:06.548Z,22.92
2023-05-04T15:21:33.928Z,23.09
2023-05-04T15:24:01.534Z,23.09
2023-05-04T15:26:31.104Z,23.12
2023-05-04T15:28:58.253Z,23.25
2023-05-04T15:31:25.505Z,23.34
2023-05-04T15:33:52.536Z,23.42
2023-05-04T15:36:19.694Z,23.47
2023-05-04T15:38:46.940Z,23.52
2023-05-04T15:41:24.136Z,23.66
2023-05-04T15:43:51.236Z,23.81
2023-05-04T15:46:18.309Z,23.74
2023-05-04T15:48:45.318Z,23.79
2023-05-04T15:51:12.380Z,23.78
2023-05-04T15:53:39.932Z,23.67
2023-05-04T15:56:06.880Z,23.76
2023-05-04T15:58:34.093Z,23.78
2023-05-04T16:01:04.069Z,23.77
2023-05-04T16:03:32.813Z,23.73
2023-05-04T16:05:59.785Z,23.78
2023-05-04T16:08:26.943Z,23.83
2023-05-04T16:10:54.330Z,23.82
2023-05-04T16:13:21.430Z,23.88
2023-05-04T16:15:51.745Z,23.84
2023-05-04T16:18:18.735Z,23.88
2023-05-04T16:20:46.437Z,23.83
2023-05-04T16:23:15.147Z,23.88
2023-05-04T16:25:42.417Z,23.88
2023-05-04T16:28:09.765Z,23.88
2023-05-04T16:30:37.389Z,23.77
2023-05-04T16:33:04.921Z,23.82
2023-05-04T16:35:31.991Z,23.88
2023-05-04T16:37:59.590Z,23.61
2023-05-04T16:40:26.860Z,23.54
2023-05-04T16:42:53.954Z,23.65
2023-05-04T16:45:21.047Z,23.62
2023-05-04T16:47:47.965Z,23.67
2023-05-04T16:50:15.127Z,23.68
2023-05-04T16:52:42.283Z,23.64
2023-05-04T16:55:11.856Z,23.61
2023-05-04T16:57:39.539Z,23.59
2023-05-04T17:00:07.843Z,23.58
2023-05-04T17:02:38.063Z,23.43
2023-05-04T17:05:10.493Z,23.47
2023-05-04T17:07:40.142Z,23.55
2023-05-04T17:10:08.549Z,23.58
2023-05-04T17:12:36.356Z,23.60
2023-05-04T17:15:03.979Z,23.59
2023-05-04T17:17:31.078Z,23.67
2023-05-04T17:19:58.314Z,23.68
2023-05-04T17:22:25.553Z,23.61
2023-05-04T17:24:52.650Z,23.62
2023-05-04T17:27:19.619Z,23.66
2023-05-04T17:29:46.783Z,23.61
2023-05-04T17:32:13.928Z,23.64
2023-05-04T17:34:40.997Z,23.66
2023-05-04T17:37:07.988Z,23.69
2023-05-04T17:39:34.944Z,23.68
2023-05-04T17:42:01.924Z,23.64
2023-05-04T17:44:29.971Z,23.62
2023-05-04T17:46:56.961Z,23.64
2023-05-04T17:49:23.932Z,23.58
2023-05-04T17:51:51.110Z,23.57
2023-05-04T17:54:18.042Z,23.56
2023-05-04T17:56:44.948Z,23.51
2023-05-04T17:59:11.894Z,23.44
2023-05-04T18:01:39.082Z,23.35
2023-05-04T18:04:06.099Z,23.36
2023-05-04T18:06:33.491Z,23.24
2023-05-04T18:09:01.674Z,23.25
2023-05-04T18:11:28.723Z,23.19
2023-05-04T18:13:56.753Z,23.22
2023-05-04T18:16:24.885Z,23.23
2023-05-04T18:18:52.485Z,23.19
2023-05-04T18:21:19.988Z,23.19
2023-05-04T18:23:47.273Z,23.14
2023-05-04T18:26:22.662Z,23.10
2023-05-04T18:28:50.080Z,23.07
2023-05-04T18:31:17.655Z,22.97
2023-05-04T18:33:45.231Z,22.93
2023-05-04T18:36:14.905Z,22.91
2023-05-04T18:38:42.221Z,22.90
2023-05-04T18:41:09.527Z,22.90
2023-05-04T18:43:36.520Z,22.79
2023-05-04T18:46:07.656Z,22.72
2023-05-04T18:48:34.981Z,22.74
2023-05-04T18:51:02.983Z,22.73
2023-05-04T18:53:30.031Z,22.63
2023-05-04T18:56:06.589Z,22.56
2023-05-04T18:58:34.356Z,22.53
2023-05-04T19:01:01.447Z,22.38
2023-05-04T19:03:28.822Z,22.38
2023-05-04T19:05:56.277Z,22.35
2023-05-04T19:08:23.295Z,22.37
2023-05-04T19:10:50.419Z,22.36
2023-05-04T19:13:17.856Z,22.29
2023-05-04T19:15:45.581Z,22.26
2023-05-04T19:18:12.589Z,22.26
2023-05-04T19:20:39.930Z,22.21
2023-05-04T19:23:06.988Z,22.16
2023-05-04T19:25:35.268Z,22.16
2023-05-04T19:28:09.967Z,22.14
2023-05-04T19:30:37.645Z,22.16
2023-05-04T19:33:06.845Z,22.17
2023-05-04T19:35:34.127Z,22.21
2023-05-04T19:38:06.527Z,22.34
2023-05-04T19:40:34.644Z,22.42
2023-05-04T19:43:01.664Z,22.46
2023-05-04T19:45:28.717Z,22.44
2023-05-04T19:47:55.880Z,22.43
2023-05-04T19:50:23.681Z,22.42
2023-05-04T19:52:51.761Z,22.37
2023-05-04T19:55:18.838Z,22.30
2023-05-04T19:57:47.828Z,22.24
2023-05-04T20:00:17.155Z,22.18
2023-05-04T20:02:44.304Z,22.20
2023-05-04T20:05:11.330Z,22.17
2023-05-04T20:07:38.611Z,22.16
2023-05-04T20:10:06.407Z,22.12
2023-05-04T20:12:33.960Z,22.11
2023-05-04T20:15:01.229Z,22.10
2023-05-04T20:17:28.599Z,22.11
2023-05-04T20:19:56.022Z,22.07
2023-05-04T20:22:22.985Z,22.12
2023-05-04T20:24:50.420Z,22.20
2023-05-04T20:27:17.466Z,22.16
2023-05-04T20:29:45.440Z,22.15
2023-05-04T20:32:12.470Z,22.13
2023-05-04T20:34:39.840Z,22.18
2023-05-04T20:37:06.821Z,22.17
2023-05-04T20:39:34.041Z,22.13
2023-05-04T20:42:01.508Z,22.06
2023-05-04T20:44:28.570Z,22.00
2023-05-04T20:46:55.547Z,22.04
2023-05-04T20:49:22.671Z,22.07
2023-05-04T20:51:49.791Z,22.01
2023-05-04T20:54:17.303Z,21.98
2023-05-04T20:56:44.467Z,21.97
2023-05-04T20:59:11.476Z,21.93
2023-05-04T21:01:38.962Z,21.94
2023-05-04T21:04:06.313Z,22.01
2023-05-04T21:06:33.291Z,22.01
2023-05-04T21:09:02.026Z,22.05
2023-05-04T21:11:28.941Z,22.02
2023-05-04T21:13:55.936Z,21.99
2023-05-04T21:16:26.183Z,21.95
2023-05-04T21:18:53.221Z,21.95
2023-05-04T21:21:20.129Z,21.92
2023-05-04T21:23:47.073Z,21.88
2023-05-04T21:26:13.997Z,21.89
2023-05-04T21:28:40.914Z,21.90
2023-05-04T21:31:09.142Z,21.91
2023-05-04T21:33:36.503Z,21.84
2023-05-04T21:36:16.584Z,21.86
2023-05-04T21:38:43.735Z,21.90
2023-05-04T21:41:14.378Z,21.88
2023-05-04T21:43:42.165Z,21.85
2023-05-04T21:46:09.291Z,21.83
2023-05-04T21:48:36.592Z,21.80
2023-05-04T21:51:03.550Z,21.82
2023-05-04T21:53:33.450Z,21.81
2023-05-04T21:56:10.400Z,21.79
2023-05-04T21:58:39.785Z,21.81
2023-05-04T22:01:14.758Z,21.81
2023-05-04T22:03:41.757Z,21.81
2023-05-04T22:06:08.840Z,21.87
2023-05-04T22:08:35.848Z,21.86
2023-05-04T22:11:03.089Z,21.85
2023-05-04T22:13:30.042Z,21.89
2023-05-04T22:15:57.117Z,21.87
2023-05-04T22:18:24.123Z,21.86
2023-05-04T22:20:51.176Z,21.89
2023-05-04T22:23:18.142Z,21.92
2023-05-04T22:25:45.318Z,21.94
2023-05-04T22:28:12.256Z,21.92
2023-05-04T22:30:39.850Z,21.89
2023-05-04T22:33:06.997Z,21.90
2023-05-04T22:35:33.982Z,21.88
2023-05-04T22:38:00.915Z,21.90
2023-05-04T22:40:30.902Z,21.89
2023-05-04T22:42:59.334Z,21.91
2023-05-04T22:45:26.317Z,21.92
2023-05-04T22:47:53.526Z,21.89
2023-05-04T22:50:20.805Z,21.92
2023-05-04T22:52:47.976Z,21.89
2023-05-04T22:55:14.970Z,21.91
2023-05-04T22:57:42.029Z,21.81
2023-05-04T23:00:10.389Z,21.81
2023-05-04T23:02:37.832Z,21.78
2023-05-04T23:05:06.015Z,21.76
2023-05-04T23:07:33.200Z,21.77
2023-05-04T23:10:00.372Z,21.71
2023-05-04T23:12:28.766Z,21.61
2023-05-04T23:14:55.866Z,21.62
2023-05-04T23:17:22.988Z,21.63
2023-05-04T23:19:51.034Z,21.61
2023-05-04T23:22:17.944Z,21.58
2023-05-04T23:24:45.286Z,21.63
2023-05-04T23:27:12.556Z,21.56
2023-05-04T23:29:41.778Z,21.64
2023-05-04T23:32:09.064Z,21.63
2023-05-04T23:34:36.174Z,21.65
2023-05-04T23:37:03.184Z,21.64
2023-05-04T23:39:30.389Z,21.62
2023-05-04T23:41:57.994Z,21.69
2023-05-04T23:44:25.385Z,21.67
2023-05-04T23:46:55.184Z,21.68
2023-05-04T23:49:22.193Z,21.67
2023-05-04T23:51:49.131Z,21.66
2023-05-04T23:54:19.377Z,21.66
2023-05-04T23:56:46.828Z,21.65
2023-05-04T23:59:14.120Z,21.64
